Abosjon, Sweden

1:52 PM CET on January 21, 2018 (GMT +0100)
Kramfors-Solleftea Air Base | | Change Station

Elev 62 ft 63.05 °N, 17.77 °E | Updated 32 minutes ago

Overcast
Overcast
21 °F
Feels Like 21 °F
N
2
Wind Variable Wind from North

Today
High -- | Low -- °F
--% Chance of Precip.
Yesterday
High -- | Low -- °F
Precip. -- in
Pressure 29.89 in
Visibility 6.2 miles
Clouds Scattered Clouds 500 ft
Overcast 800 ft
Dew Point 19 °F
Humidity 93%
Rainfall 0.00 in
Snow Depth Not available.
8:57 AM 3:03 PM
Waxing Crescent, 18% visible
METAR ESNK 211220Z AUTO 35002KT 9999 SCT005/// OVC008/// M06/M07 Q1012 RESN REDZ
Pressure 29.89 in
Visibility 6.2 miles
Clouds Scattered Clouds 500 ft
Overcast 800 ft
Dew Point 19 °F
Humidity 93%
Rainfall 0.00 in
Snow Depth Not available.
8:57 AM 3:03 PM
Waxing Crescent, 18% visible
METAR ESNK 211220Z AUTO 35002KT 9999 SCT005/// OVC008/// M06/M07 Q1012 RESN REDZ

Get Severe Weather Alerts

Thanks for signing up!

Be on the lookout for a verification email in your inbox.

You'll start receiving the daily forecast at 6 AM.

×

10-Day Weather Forecast

×

Almanac

Astronomy

Jan. 21, 2018 Rise Set
Actual Time
Civil Twilight
Nautical Twilight
Astronomical Twilight
Moon
Length of Visible Light
Length of Day
Tomorrow will be .
, % of the Moon is Illuminated

Today's Extremes

Country Highs Country Lows

Community

WunderPhotos

Category 6

Welcome to Category 6. This is the collective home for Weather Underground's featured writeups by Dr. Jeff Masters (right), Bob Henson (left), Chris Burt, and other regular contributors.

Nearby

Air Quality

  Air Quality AQ Index Pollutant
Not available.

Snow Depth

Station Depth Elevation

Earthquake Activity

City Distance Mag. Time & Date
Minimum magnitude displayed is 2.5.

Coastal Water Temperatures

Place Temperature

Stations

Nearby Weather Stations

Station Location Temp. Windchill Dew Point Humidity Wind Precip. Elev Updated Type